createdAt,value
2022-08-21T00:01:43.952Z,67.78
2022-08-21T00:04:11.434Z,65.33
2022-08-21T00:06:41.647Z,68.16
2022-08-21T00:09:09.439Z,68.76
2022-08-21T00:11:37.903Z,68.46
2022-08-21T00:14:07.677Z,66.75
2022-08-21T00:16:34.765Z,68.42
2022-08-21T00:19:04.581Z,68.21
2022-08-21T00:21:31.463Z,68.81
2022-08-21T00:23:58.308Z,69.56
2022-08-21T00:26:25.250Z,69.56
2022-08-21T00:28:52.124Z,68.66
2022-08-21T00:31:19.188Z,68.79
2022-08-21T00:33:46.631Z,70.27
2022-08-21T00:36:14.169Z,70.24
2022-08-21T00:38:40.904Z,69.14
2022-08-21T00:41:20.940Z,69.89
2022-08-21T00:43:57.285Z,69.56
2022-08-21T00:46:27.437Z,69.44
2022-08-21T00:48:57.182Z,70.06
2022-08-21T00:51:56.571Z,70.05
2022-08-21T00:54:25.762Z,70.50
2022-08-21T00:57:00.784Z,69.98
2022-08-21T00:59:29.327Z,70.81
2022-08-21T01:01:56.194Z,71.11
2022-08-21T01:04:23.565Z,69.46
2022-08-21T01:06:52.579Z,70.22
2022-08-21T01:09:20.026Z,70.05
2022-08-21T01:11:47.072Z,70.05
2022-08-21T01:14:15.474Z,71.10
2022-08-21T01:16:45.315Z,70.54
2022-08-21T01:19:12.298Z,70.40
2022-08-21T01:21:39.196Z,69.95
2022-08-21T01:24:06.767Z,70.69
2022-08-21T01:26:38.063Z,71.14
2022-08-21T01:29:27.895Z,70.77
2022-08-21T01:31:54.800Z,71.15
2022-08-21T01:34:21.660Z,71.24
2022-08-21T01:36:49.023Z,71.97
2022-08-21T01:39:16.109Z,71.08
2022-08-21T01:41:43.078Z,71.82
2022-08-21T01:44:10.022Z,72.18
2022-08-21T01:46:36.986Z,72.16
2022-08-21T01:49:05.313Z,71.90
2022-08-21T01:51:32.194Z,72.18
2022-08-21T01:53:59.290Z,71.99
2022-08-21T01:56:27.203Z,72.93
2022-08-21T01:58:54.058Z,72.06
2022-08-21T02:01:20.973Z,72.84
2022-08-21T02:03:47.887Z,73.19
2022-08-21T02:06:18.860Z,72.75
2022-08-21T02:08:47.390Z,72.13
2022-08-21T02:11:14.614Z,70.56
2022-08-21T02:13:41.531Z,72.51
2022-08-21T02:16:09.067Z,72.50
2022-08-21T02:18:36.551Z,72.95
2022-08-21T02:21:04.320Z,70.75
2022-08-21T02:23:31.502Z,72.72
2022-08-21T02:25:59.658Z,72.46
2022-08-21T02:28:27.778Z,71.66
2022-08-21T02:30:56.075Z,72.67
2022-08-21T02:33:23.393Z,72.94
2022-08-21T02:35:51.592Z,71.96
2022-08-21T02:38:25.380Z,72.11
2022-08-21T02:40:53.047Z,72.73
2022-08-21T02:43:22.258Z,71.45
2022-08-21T02:45:49.909Z,73.37
2022-08-21T02:48:19.901Z,74.19
2022-08-21T02:50:54.731Z,74.91
2022-08-21T02:53:21.662Z,74.03
2022-08-21T02:55:50.898Z,73.33
2022-08-21T02:58:20.601Z,73.14
2022-08-21T03:00:47.808Z,74.21
2022-08-21T03:03:15.742Z,74.86
2022-08-21T03:05:43.619Z,75.04
2022-08-21T03:08:12.562Z,75.08
2022-08-21T03:10:41.755Z,73.84
2022-08-21T03:13:09.164Z,74.64
2022-08-21T03:15:36.073Z,74.73
2022-08-21T03:18:04.626Z,74.28
2022-08-21T03:20:33.262Z,75.05
2022-08-21T03:23:01.164Z,74.54
2022-08-21T03:25:39.982Z,74.67
2022-08-21T03:28:13.258Z,74.25
2022-08-21T03:30:42.543Z,74.40
2022-08-21T03:33:09.350Z,75.43
2022-08-21T03:35:40.234Z,74.87
2022-08-21T03:38:07.226Z,74.98
2022-08-21T03:40:34.168Z,74.51
2022-08-21T03:43:01.094Z,74.70
2022-08-21T03:45:28.639Z,75.20
2022-08-21T03:47:58.306Z,74.39
2022-08-21T03:50:28.629Z,74.55
2022-08-21T03:52:55.934Z,75.70
2022-08-21T03:55:23.088Z,75.76
2022-08-21T03:57:49.993Z,75.04
2022-08-21T04:00:18.064Z,75.07
2022-08-21T04:02:45.068Z,74.94
2022-08-21T04:05:14.050Z,75.45
2022-08-21T04:07:40.909Z,75.51
2022-08-21T04:10:08.668Z,76.13
2022-08-21T04:12:35.638Z,76.19
2022-08-21T04:15:03.074Z,74.42
2022-08-21T04:17:29.986Z,74.65
2022-08-21T04:19:57.565Z,74.95
2022-08-21T04:22:24.444Z,75.28
2022-08-21T04:27:52.974Z,75.47
2022-08-21T04:30:20.842Z,75.60
2022-08-21T04:32:50.134Z,74.69
2022-08-21T04:35:19.940Z,76.14
2022-08-21T04:37:46.679Z,75.97
2022-08-21T04:40:15.870Z,75.12
2022-08-21T04:42:46.213Z,75.00
2022-08-21T04:45:29.452Z,74.83
2022-08-21T04:47:59.044Z,75.35
2022-08-21T04:50:29.258Z,75.50
2022-08-21T04:53:05.606Z,74.75
2022-08-21T04:55:32.551Z,74.65
2022-08-21T04:58:00.764Z,74.29
2022-08-21T05:00:27.696Z,76.24
2022-08-21T05:02:57.381Z,74.22
2022-08-21T05:05:25.449Z,75.49
2022-08-21T05:07:53.146Z,74.75
2022-08-21T05:10:20.611Z,74.90
2022-08-21T05:12:47.462Z,74.40
2022-08-21T05:15:14.455Z,74.96
2022-08-21T05:17:52.351Z,74.96
2022-08-21T05:20:27.863Z,74.82
2022-08-21T05:22:54.790Z,75.96
2022-08-21T05:25:22.360Z,74.36
2022-08-21T05:27:52.659Z,75.01
2022-08-21T05:30:20.685Z,75.54
2022-08-21T05:32:48.559Z,75.17
2022-08-21T05:35:15.545Z,75.51
2022-08-21T05:37:42.298Z,75.53
2022-08-21T05:40:22.205Z,75.69
2022-08-21T05:42:54.539Z,75.59
2022-08-21T05:45:42.883Z,75.64
2022-08-21T05:48:22.117Z,76.13
2022-08-21T05:50:50.513Z,76.58
2022-08-21T05:53:19.155Z,75.37
2022-08-21T05:55:46.961Z,75.92
2022-08-21T05:58:19.299Z,76.40
2022-08-21T06:00:48.565Z,75.72
2022-08-21T06:03:22.911Z,75.61
2022-08-21T06:05:49.830Z,75.96
2022-08-21T06:08:18.462Z,76.48
2022-08-21T06:10:46.954Z,75.71
2022-08-21T06:13:14.992Z,76.41
2022-08-21T06:15:42.193Z,75.33
2022-08-21T06:18:09.231Z,75.61
2022-08-21T06:20:36.523Z,75.76
2022-08-21T06:23:03.856Z,74.85
2022-08-21T06:25:30.829Z,74.61
2022-08-21T06:28:24.278Z,74.63
2022-08-21T06:30:51.149Z,74.14
2022-08-21T06:33:18.234Z,74.68
2022-08-21T06:35:45.433Z,74.27
2022-08-21T06:38:12.502Z,74.59
2022-08-21T06:40:43.985Z,74.69
2022-08-21T06:43:16.820Z,74.05
2022-08-21T06:45:44.044Z,73.90
2022-08-21T06:48:13.535Z,73.64
2022-08-21T06:50:42.608Z,73.77
2022-08-21T06:53:13.644Z,72.68
2022-08-21T06:55:40.592Z,72.21
2022-08-21T06:58:07.522Z,71.59
2022-08-21T07:00:35.189Z,71.73
2022-08-21T07:03:02.096Z,71.14
2022-08-21T07:05:31.174Z,71.14
2022-08-21T07:07:58.343Z,71.16
2022-08-21T07:10:28.779Z,70.32
2022-08-21T07:13:01.315Z,70.66
2022-08-21T07:15:32.190Z,69.37
2022-08-21T07:18:00.215Z,70.37
2022-08-21T07:20:28.635Z,69.12
2022-08-21T07:22:56.722Z,69.20
2022-08-21T07:25:23.633Z,68.57
2022-08-21T07:27:50.533Z,69.21
2022-08-21T07:30:17.354Z,67.49
2022-08-21T07:32:44.868Z,67.87
2022-08-21T07:35:11.719Z,66.47
2022-08-21T07:37:39.186Z,66.66
2022-08-21T07:40:06.681Z,66.61
2022-08-21T07:42:33.655Z,66.32
2022-08-21T07:45:00.691Z,65.83
2022-08-21T07:47:41.647Z,65.23
2022-08-21T07:50:12.463Z,65.21
2022-08-21T07:52:40.273Z,65.11
2022-08-21T07:55:08.920Z,64.52
2022-08-21T07:57:35.809Z,64.06
2022-08-21T08:00:05.058Z,64.05
2022-08-21T08:02:39.628Z,63.16
2022-08-21T08:05:09.403Z,63.17
2022-08-21T08:07:36.806Z,63.57
2022-08-21T08:10:05.083Z,63.59
2022-08-21T08:12:32.006Z,63.51
2022-08-21T08:15:00.021Z,63.43
2022-08-21T08:17:27.826Z,62.68
2022-08-21T08:19:54.942Z,60.92
2022-08-21T08:22:24.888Z,59.75
2022-08-21T08:24:52.635Z,59.64
2022-08-21T08:27:20.548Z,59.12
2022-08-21T08:29:47.743Z,58.46
2022-08-21T08:32:14.853Z,57.99
2022-08-21T08:34:41.614Z,57.48
2022-08-21T08:37:10.485Z,56.92
2022-08-21T08:39:37.437Z,56.57
2022-08-21T08:42:33.642Z,55.69
2022-08-21T08:45:20.018Z,55.77
2022-08-21T08:47:52.779Z,56.11
2022-08-21T08:50:43.626Z,55.52
2022-08-21T08:53:17.306Z,56.46
2022-08-21T08:55:46.086Z,55.55
2022-08-21T08:58:20.124Z,55.37
2022-08-21T09:00:49.213Z,55.00
2022-08-21T09:03:16.960Z,55.37
2022-08-21T09:06:10.040Z,53.72
2022-08-21T09:08:51.088Z,54.46
2022-08-21T09:11:30.736Z,52.11
2022-08-21T09:14:06.499Z,51.42
2022-08-21T09:16:36.079Z,51.56
2022-08-21T09:19:02.909Z,51.01
2022-08-21T09:21:44.495Z,51.67
2022-08-21T09:24:35.240Z,52.18
2022-08-21T09:27:04.194Z,51.95
2022-08-21T09:29:33.293Z,51.44
2022-08-21T09:32:00.676Z,51.49
2022-08-21T09:34:30.055Z,51.53
2022-08-21T09:36:57.639Z,50.78
2022-08-21T09:39:48.668Z,50.69
2022-08-21T09:42:24.594Z,50.01
2022-08-21T09:45:06.853Z,49.43
2022-08-21T09:47:33.656Z,50.68
2022-08-21T09:50:10.048Z,50.01
2022-08-21T09:52:44.975Z,49.33
2022-08-21T09:55:37.884Z,49.37
2022-08-21T09:58:04.843Z,48.72
2022-08-21T10:00:34.103Z,48.50
2022-08-21T10:03:19.916Z,49.21
2022-08-21T10:06:09.270Z,48.63
2022-08-21T10:08:41.054Z,47.91
2022-08-21T10:11:15.001Z,49.35
2022-08-21T10:13:53.582Z,48.59
2022-08-21T10:16:32.238Z,49.20
2022-08-21T10:19:16.491Z,50.16
2022-08-21T10:21:52.041Z,50.43
2022-08-21T10:24:46.485Z,50.92
2022-08-21T10:27:22.156Z,51.08
2022-08-21T10:29:51.869Z,50.71
2022-08-21T10:32:40.074Z,50.10
2022-08-21T10:35:14.585Z,49.82
2022-08-21T10:37:41.422Z,49.99
2022-08-21T10:40:19.416Z,49.62
2022-08-21T10:43:22.419Z,49.02
2022-08-21T10:46:22.447Z,48.21
2022-08-21T10:49:20.524Z,47.62
2022-08-21T10:52:06.038Z,46.47
2022-08-21T10:54:54.463Z,46.67
2022-08-21T10:57:55.763Z,45.99
2022-08-21T11:00:27.609Z,46.36
2022-08-21T11:03:13.224Z,46.57
2022-08-21T11:05:51.760Z,46.39
2022-08-21T11:08:31.844Z,45.76
2022-08-21T11:11:22.215Z,45.88
2022-08-21T11:13:58.332Z,46.03
2022-08-21T11:16:39.353Z,46.96
2022-08-21T11:19:12.571Z,48.17
2022-08-21T11:21:50.234Z,48.70
2022-08-21T11:24:32.132Z,49.17
2022-08-21T11:27:22.229Z,48.50
2022-08-21T11:29:52.808Z,49.12
2022-08-21T11:32:50.430Z,46.81
2022-08-21T11:35:47.015Z,47.42
2022-08-21T11:38:19.735Z,47.61
2022-08-21T11:40:52.521Z,46.81
2022-08-21T11:43:41.420Z,47.04
2022-08-21T11:46:17.543Z,44.71
2022-08-21T11:48:56.597Z,45.04
2022-08-21T11:51:38.774Z,45.25
2022-08-21T11:54:22.309Z,44.86
2022-08-21T11:57:00.921Z,44.43
2022-08-21T11:59:40.655Z,43.71
2022-08-21T12:02:23.874Z,43.73
2022-08-21T12:04:58.974Z,43.86
2022-08-21T12:07:42.023Z,43.30
2022-08-21T12:10:15.923Z,41.87
2022-08-21T12:12:44.686Z,43.40
2022-08-21T12:15:23.328Z,42.74
2022-08-21T12:18:05.480Z,42.38
2022-08-21T12:20:37.543Z,41.84
2022-08-21T12:23:25.175Z,39.15
2022-08-21T12:26:19.666Z,39.27
2022-08-21T12:28:46.679Z,39.02
2022-08-21T12:31:22.288Z,39.22
2022-08-21T12:33:53.725Z,39.33
2022-08-21T12:36:26.849Z,40.20
2022-08-21T12:39:07.336Z,39.19
2022-08-21T12:42:02.128Z,39.41
2022-08-21T12:44:40.164Z,39.88
2022-08-21T12:47:18.041Z,39.56
2022-08-21T12:49:53.847Z,38.76
2022-08-21T12:52:25.083Z,38.57
2022-08-21T12:54:52.193Z,37.35
2022-08-21T12:57:25.697Z,38.55
2022-08-21T13:00:01.593Z,39.48
2022-08-21T13:02:36.171Z,38.81
2022-08-21T13:05:06.072Z,35.48
2022-08-21T13:07:36.092Z,35.95
2022-08-21T13:10:08.369Z,33.80
2022-08-21T13:12:36.788Z,34.47
2022-08-21T13:15:09.009Z,35.09
2022-08-21T13:17:40.045Z,33.75
2022-08-21T13:20:23.644Z,34.07
2022-08-21T13:22:50.751Z,33.19
2022-08-21T13:25:20.508Z,32.74
2022-08-21T13:28:02.566Z,32.54
2022-08-21T13:30:29.865Z,31.52
2022-08-21T13:32:59.753Z,33.77
2022-08-21T13:35:37.129Z,31.83
2022-08-21T13:38:05.326Z,33.21
2022-08-21T13:40:48.242Z,32.76
2022-08-21T13:43:21.372Z,33.12
2022-08-21T13:45:50.969Z,34.11
2022-08-21T13:48:18.294Z,32.31
2022-08-21T13:50:45.516Z,32.38
2022-08-21T13:53:32.203Z,30.92
2022-08-21T13:56:00.892Z,31.94
2022-08-21T13:58:34.565Z,33.71
2022-08-21T14:01:06.461Z,32.41
2022-08-21T14:03:33.892Z,33.63
2022-08-21T14:06:01.062Z,34.14
2022-08-21T14:08:34.982Z,34.97
2022-08-21T14:11:04.775Z,35.08
2022-08-21T14:13:31.522Z,37.43
2022-08-21T14:16:02.234Z,37.15
2022-08-21T14:18:29.640Z,36.20
2022-08-21T14:21:10.364Z,32.73
2022-08-21T14:23:37.367Z,32.34
2022-08-21T14:26:05.947Z,29.46
2022-08-21T14:28:41.426Z,27.95
2022-08-21T14:31:21.383Z,27.59
2022-08-21T14:33:49.371Z,28.47
2022-08-21T14:36:16.220Z,28.39
2022-08-21T14:38:43.631Z,29.00
2022-08-21T14:41:17.948Z,30.74
2022-08-21T14:43:46.829Z,32.49
2022-08-21T14:46:22.111Z,34.20
2022-08-21T14:48:49.715Z,33.90
2022-08-21T14:51:16.549Z,35.48
2022-08-21T14:53:43.511Z,35.73
2022-08-21T14:56:11.095Z,36.75
2022-08-21T14:58:43.729Z,36.82
2022-08-21T15:01:13.313Z,38.53
2022-08-21T15:03:40.816Z,39.09
2022-08-21T15:06:08.567Z,39.42
2022-08-21T15:08:35.572Z,40.87
2022-08-21T15:11:12.662Z,41.06
2022-08-21T15:13:40.830Z,42.62
2022-08-21T15:16:09.968Z,43.81
2022-08-21T15:18:36.766Z,42.73
2022-08-21T15:21:03.654Z,40.72
2022-08-21T15:23:30.646Z,40.76
2022-08-21T15:25:59.788Z,40.25
2022-08-21T15:28:31.579Z,40.94
2022-08-21T15:31:00.702Z,42.28
2022-08-21T15:33:27.864Z,41.64
2022-08-21T15:35:54.723Z,40.59
2022-08-21T15:38:21.569Z,41.61
2022-08-21T15:40:52.020Z,40.63
2022-08-21T15:43:30.007Z,40.84
2022-08-21T15:45:59.590Z,40.14
2022-08-21T15:48:26.914Z,40.08
2022-08-21T15:50:53.797Z,40.15
2022-08-21T15:53:20.803Z,39.92
2022-08-21T15:55:47.616Z,40.05
2022-08-21T15:58:17.992Z,39.93
2022-08-21T16:00:45.779Z,40.62
2022-08-21T16:03:16.859Z,39.99
2022-08-21T16:05:45.841Z,40.02
2022-08-21T16:08:12.745Z,40.27
2022-08-21T16:10:40.340Z,41.12
2022-08-21T16:13:11.121Z,39.46
2022-08-21T16:15:37.988Z,37.93
2022-08-21T16:18:05.660Z,38.69
2022-08-21T16:20:32.573Z,39.29
2022-08-21T16:22:59.817Z,39.32
2022-08-21T16:25:27.349Z,37.83
2022-08-21T16:28:00.552Z,37.40
2022-08-21T16:30:28.355Z,38.04
2022-08-21T16:32:55.787Z,36.91
2022-08-21T16:35:25.177Z,38.32
2022-08-21T16:37:53.380Z,39.83
2022-08-21T16:40:23.338Z,39.48
2022-08-21T16:42:50.458Z,39.38
2022-08-21T16:45:20.584Z,38.13
2022-08-21T16:47:47.741Z,39.42
2022-08-21T16:50:22.497Z,40.60
2022-08-21T16:52:50.390Z,40.34
2022-08-21T16:55:17.413Z,38.50
2022-08-21T16:57:44.302Z,39.71
2022-08-21T17:00:13.366Z,39.90
2022-08-21T17:02:44.060Z,39.89
2022-08-21T17:05:13.964Z,41.03
2022-08-21T17:07:41.793Z,40.11
2022-08-21T17:10:10.069Z,41.73
2022-08-21T17:12:37.040Z,41.61
2022-08-21T17:15:12.645Z,41.22
2022-08-21T17:17:39.539Z,41.61
2022-08-21T17:20:07.112Z,43.10
2022-08-21T17:22:34.008Z,41.46
2022-08-21T17:25:00.828Z,42.46
2022-08-21T17:27:30.916Z,43.05
2022-08-21T17:29:57.892Z,44.24
2022-08-21T17:32:25.184Z,44.58
2022-08-21T17:34:52.178Z,44.95
2022-08-21T17:37:20.338Z,44.27
2022-08-21T17:39:47.326Z,44.00
2022-08-21T17:42:14.929Z,44.62
2022-08-21T17:44:44.998Z,44.97
2022-08-21T17:47:12.926Z,44.31
2022-08-21T17:49:39.932Z,44.20
2022-08-21T17:52:07.958Z,45.08
2022-08-21T17:54:36.378Z,44.85
2022-08-21T17:57:03.913Z,45.20
2022-08-21T17:59:31.226Z,44.98
2022-08-21T18:02:01.576Z,45.95
2022-08-21T18:04:29.810Z,47.69
2022-08-21T18:06:56.966Z,49.42
2022-08-21T18:09:28.151Z,48.93
2022-08-21T18:11:56.637Z,50.02
2022-08-21T18:14:28.370Z,49.98
2022-08-21T18:16:56.456Z,49.75
2022-08-21T18:19:26.079Z,48.08
2022-08-21T18:21:54.682Z,49.73
2022-08-21T18:24:22.438Z,52.03
2022-08-21T18:26:50.691Z,52.03
2022-08-21T18:29:19.983Z,51.10
2022-08-21T18:31:47.429Z,52.22
2022-08-21T18:34:23.495Z,51.86
2022-08-21T18:36:51.327Z,51.97
2022-08-21T18:39:35.890Z,51.09
2022-08-21T18:42:05.777Z,52.99
2022-08-21T18:44:32.806Z,53.28
2022-08-21T18:47:02.213Z,53.42
2022-08-21T18:49:29.203Z,54.64
2022-08-21T18:51:57.415Z,54.79
2022-08-21T18:54:24.397Z,55.02
2022-08-21T18:56:54.991Z,54.88
2022-08-21T18:59:22.113Z,54.76
2022-08-21T19:01:50.346Z,54.60
2022-08-21T19:04:41.053Z,55.40
2022-08-21T19:07:04.448Z,55.29
2022-08-21T19:09:31.295Z,55.15
2022-08-21T19:11:58.321Z,54.59
2022-08-21T19:14:25.378Z,55.20
2022-08-21T19:16:52.249Z,54.99
2022-08-21T19:19:19.265Z,54.97
2022-08-21T19:21:49.523Z,54.11
2022-08-21T19:24:17.904Z,53.02
2022-08-21T19:26:45.166Z,53.64
2022-08-21T19:29:12.894Z,53.99
2022-08-21T19:31:42.692Z,54.48
2022-08-21T19:34:19.749Z,53.15
2022-08-21T19:36:46.826Z,55.63
2022-08-21T19:39:14.790Z,54.26
2022-08-21T19:41:45.902Z,54.00
2022-08-21T19:44:22.875Z,56.23
2022-08-21T19:46:52.102Z,55.54
2022-08-21T19:49:23.306Z,54.87
2022-08-21T19:51:50.317Z,56.45
2022-08-21T19:54:23.658Z,57.38
2022-08-21T19:56:52.498Z,58.46
2022-08-21T19:59:24.706Z,58.81
2022-08-21T20:01:52.171Z,59.97
2022-08-21T20:04:19.702Z,60.88
2022-08-21T20:06:47.218Z,60.65
2022-08-21T20:09:15.407Z,60.88
2022-08-21T20:11:47.927Z,60.51
2022-08-21T20:14:17.477Z,58.11
2022-08-21T20:16:44.402Z,61.47
2022-08-21T20:19:11.294Z,62.40
2022-08-21T20:24:27.336Z,61.69
2022-08-21T20:26:55.309Z,62.05
2022-08-21T20:29:24.626Z,62.20
2022-08-21T20:31:56.635Z,63.07
2022-08-21T20:34:23.718Z,62.11
2022-08-21T20:36:53.220Z,62.32
2022-08-21T20:39:20.342Z,62.49
2022-08-21T20:41:52.697Z,61.71
2022-08-21T20:44:19.685Z,60.47
2022-08-21T20:46:46.587Z,63.73
2022-08-21T20:49:17.841Z,63.21
2022-08-21T20:51:47.839Z,63.72
2022-08-21T20:54:33.512Z,61.06
2022-08-21T20:57:15.776Z,61.26
2022-08-21T20:59:49.924Z,64.14
2022-08-21T21:02:19.547Z,64.35
2022-08-21T21:05:00.693Z,64.33
2022-08-21T21:07:52.165Z,61.86
2022-08-21T21:10:42.858Z,62.63
2022-08-21T21:13:20.783Z,63.85
2022-08-21T21:15:52.699Z,64.34
2022-08-21T21:18:31.114Z,63.77
2022-08-21T21:21:07.654Z,64.25
2022-08-21T21:23:42.840Z,64.63
2022-08-21T21:26:20.737Z,64.05
2022-08-21T21:28:58.612Z,62.18
2022-08-21T21:31:27.568Z,64.11
2022-08-21T21:33:55.857Z,62.12
2022-08-21T21:36:30.192Z,65.08
2022-08-21T21:39:23.487Z,65.89
2022-08-21T21:41:50.503Z,66.20
2022-08-21T21:44:36.125Z,66.96
2022-08-21T21:47:28.407Z,67.29
2022-08-21T21:50:21.931Z,68.23
2022-08-21T21:53:12.321Z,69.33
2022-08-21T21:56:02.455Z,68.94
2022-08-21T21:58:53.421Z,68.70
2022-08-21T22:01:35.837Z,69.30
2022-08-21T22:04:07.439Z,68.71
2022-08-21T22:06:51.325Z,69.37
2022-08-21T22:09:36.551Z,69.29
2022-08-21T22:12:16.685Z,69.28
2022-08-21T22:14:44.443Z,69.72
2022-08-21T22:17:51.121Z,70.52
2022-08-21T22:20:27.518Z,71.96
2022-08-21T22:22:56.339Z,72.88
2022-08-21T22:25:31.020Z,72.64
2022-08-21T22:28:09.959Z,72.63
2022-08-21T22:30:45.508Z,71.30
2022-08-21T22:33:16.545Z,71.63
2022-08-21T22:35:51.601Z,71.41
2022-08-21T22:38:39.519Z,72.44
2022-08-21T22:41:19.218Z,70.78
2022-08-21T22:44:07.300Z,72.04
2022-08-21T22:46:48.108Z,72.32
2022-08-21T22:49:38.854Z,71.81
2022-08-21T22:52:18.623Z,71.95
2022-08-21T22:54:46.315Z,72.66
2022-08-21T22:57:44.572Z,72.64
2022-08-21T23:00:15.622Z,72.50
2022-08-21T23:02:48.448Z,71.92
2022-08-21T23:05:30.703Z,70.99
2022-08-21T23:08:14.026Z,70.03
2022-08-21T23:10:41.793Z,71.71
2022-08-21T23:13:13.222Z,72.18
2022-08-21T23:16:22.086Z,73.52
2022-08-21T23:19:16.447Z,72.63
2022-08-21T23:21:53.565Z,72.46
2022-08-21T23:24:32.686Z,72.57
2022-08-21T23:27:38.340Z,73.04
2022-08-21T23:30:11.226Z,74.18
2022-08-21T23:36:18.553Z,76.28
2022-08-21T23:39:20.648Z,75.68
2022-08-21T23:42:17.732Z,76.16
2022-08-21T23:45:13.517Z,74.84
2022-08-21T23:48:05.772Z,73.74
2022-08-21T23:50:39.447Z,74.16
2022-08-21T23:53:36.302Z,74.06
2022-08-21T23:56:24.518Z,73.96
2022-08-21T23:58:57.484Z,73.05
